createdAt,value
2018-09-06T00:00:04.888Z,25.7
2018-09-06T00:02:05.621Z,25.7
2018-09-06T00:04:05.592Z,25.7
2018-09-06T00:06:07.863Z,25.7
2018-09-06T00:08:05.104Z,25.7
2018-09-06T00:10:05.407Z,25.7
2018-09-06T00:12:05.109Z,25.7
2018-09-06T00:14:04.860Z,25.7
2018-09-06T00:16:08.117Z,25.6
2018-09-06T00:18:05.062Z,25.6
2018-09-06T00:20:04.755Z,25.7
2018-09-06T00:22:05.454Z,25.7
2018-09-06T00:24:05.149Z,25.6
2018-09-06T00:26:04.836Z,25.3
2018-09-06T00:28:13.078Z,24.9
2018-09-06T00:30:04.829Z,24.9
2018-09-06T00:32:07.628Z,24.6
2018-09-06T00:34:07.874Z,24.4
2018-09-06T00:36:10.685Z,24.3
2018-09-06T00:38:07.958Z,24.5
2018-09-06T00:40:04.699Z,24.5
2018-09-06T00:42:05.463Z,24.7
2018-09-06T00:44:04.720Z,24.9
2018-09-06T00:46:05.424Z,25
2018-09-06T00:48:05.192Z,25.1
2018-09-06T00:50:04.887Z,25.2
2018-09-06T00:52:10.237Z,25.3
2018-09-06T00:54:05.281Z,25.3
2018-09-06T00:56:04.994Z,25.3
2018-09-06T00:58:04.632Z,25.3
2018-09-06T01:00:05.319Z,25.4
2018-09-06T01:02:05.021Z,25.4
2018-09-06T01:04:07.247Z,25.5
2018-09-06T01:06:04.968Z,25.5
2018-09-06T01:08:06.545Z,25.5
2018-09-06T01:10:08.176Z,25.5
2018-09-06T01:12:04.912Z,25.5
2018-09-06T01:14:05.809Z,25.5
2018-09-06T01:16:05.103Z,25.4
2018-09-06T01:18:07.564Z,25.5
2018-09-06T01:20:05.276Z,25.5
2018-09-06T01:22:04.937Z,25.5
2018-09-06T01:24:04.683Z,25.5
2018-09-06T01:26:07.979Z,25.3
2018-09-06T01:28:04.885Z,25.2
2018-09-06T01:30:05.664Z,25.2
2018-09-06T01:32:05.394Z,25.3
2018-09-06T01:34:04.604Z,25.4
2018-09-06T01:36:04.868Z,25.5
2018-09-06T01:38:05.155Z,25.5
2018-09-06T01:40:07.349Z,25.6
2018-09-06T01:42:05.124Z,25.5
2018-09-06T01:44:04.879Z,25.6
2018-09-06T01:46:05.249Z,25.6
2018-09-06T01:48:04.944Z,25.6
2018-09-06T01:50:04.824Z,25.6
2018-09-06T01:52:05.403Z,25.6
2018-09-06T01:54:07.621Z,25.6
2018-09-06T01:56:09.958Z,25.6
2018-09-06T01:58:04.719Z,25.6
2018-09-06T02:00:05.452Z,25.6
2018-09-06T02:02:04.745Z,25.6
2018-09-06T02:04:10.487Z,25.6
2018-09-06T02:06:04.715Z,25.6
2018-09-06T02:08:05.008Z,25.6
2018-09-06T02:10:05.299Z,25.6
2018-09-06T02:12:05.652Z,25.6
2018-09-06T02:14:09.978Z,25.6
2018-09-06T02:16:04.739Z,25.6
2018-09-06T02:18:04.634Z,25.6
2018-09-06T02:20:05.282Z,25.6
2018-09-06T02:22:04.981Z,25.6
2018-09-06T02:24:17.340Z,25.7
2018-09-06T02:26:07.270Z,25.7
2018-09-06T02:28:04.913Z,25.7
2018-09-06T02:30:05.609Z,25.7
2018-09-06T02:32:05.361Z,25.7
2018-09-06T02:34:05.092Z,25.6
2018-09-06T02:36:05.423Z,25.6
2018-09-06T02:38:04.613Z,25.6
2018-09-06T02:40:07.924Z,25.6
2018-09-06T02:42:04.702Z,25.6
2018-09-06T02:44:05.401Z,25.7
2018-09-06T02:46:07.614Z,25.7
2018-09-06T02:48:10.367Z,25.7
2018-09-06T02:50:05.628Z,25.7
2018-09-06T02:52:05.340Z,25.6
2018-09-06T02:54:05.080Z,25.6
2018-09-06T02:56:04.866Z,25.6
2018-09-06T02:58:05.145Z,25.6
2018-09-06T03:00:04.874Z,25.6
2018-09-06T03:02:05.539Z,25.6
2018-09-06T03:04:05.286Z,25.6
2018-09-06T03:06:15.108Z,25.4
2018-09-06T03:08:05.296Z,25.4
2018-09-06T03:10:10.111Z,25.1
2018-09-06T03:12:04.878Z,25.1
2018-09-06T03:14:05.599Z,25.2
2018-09-06T03:16:04.929Z,25.2
2018-09-06T03:18:05.389Z,25.3
2018-09-06T03:20:07.635Z,25.3
2018-09-06T03:22:12.447Z,25.3
2018-09-06T03:24:05.130Z,25.3
2018-09-06T03:26:04.895Z,25.3
2018-09-06T03:28:05.636Z,25.2
2018-09-06T03:30:07.965Z,25.2
2018-09-06T03:32:04.740Z,25.2
2018-09-06T03:34:05.464Z,25
2018-09-06T03:36:09.789Z,24.9
2018-09-06T03:38:07.720Z,25
2018-09-06T03:40:05.511Z,25.1
2018-09-06T03:42:05.232Z,25.1
2018-09-06T03:44:04.969Z,25.2
2018-09-06T03:46:10.282Z,25.3
2018-09-06T03:48:10.140Z,25.3
2018-09-06T03:50:12.438Z,25.3
2018-09-06T03:52:05.266Z,25.3
2018-09-06T03:54:05.044Z,25.3
2018-09-06T03:56:04.743Z,25.4
2018-09-06T03:58:05.395Z,25.3
2018-09-06T04:00:05.090Z,25.4
2018-09-06T04:02:04.956Z,25.4
2018-09-06T04:04:04.648Z,25.3
2018-09-06T04:06:05.320Z,25.4
2018-09-06T04:08:05.060Z,25.3
2018-09-06T04:10:04.743Z,25.4
2018-09-06T04:12:05.471Z,25.4
2018-09-06T04:14:05.152Z,25.3
2018-09-06T04:16:07.424Z,25.3
2018-09-06T04:18:05.306Z,25.4
2018-09-06T04:20:05.588Z,25.3
2018-09-06T04:22:05.366Z,25.4
2018-09-06T04:24:07.698Z,25.4
2018-09-06T04:26:08.113Z,25.4
2018-09-06T04:28:04.814Z,25.4
2018-09-06T04:30:05.554Z,25.4
2018-09-06T04:32:05.573Z,25.2
2018-09-06T04:34:05.267Z,25.2
2018-09-06T04:36:10.127Z,25.3
2018-09-06T04:38:04.984Z,25.3
2018-09-06T04:40:07.210Z,25.3
2018-09-06T04:42:07.446Z,25.4
2018-09-06T04:44:07.736Z,25.4
2018-09-06T04:46:08.461Z,25.4
2018-09-06T04:48:05.394Z,25.4
2018-09-06T04:50:09.777Z,25.4
2018-09-06T04:52:05.494Z,25.4
2018-09-06T04:54:05.189Z,25.4
2018-09-06T04:56:07.929Z,25.4
2018-09-06T04:58:05.566Z,25.4
2018-09-06T05:00:05.241Z,25.4
2018-09-06T05:02:05.018Z,25.4
2018-09-06T05:04:04.773Z,25.4
2018-09-06T05:06:05.578Z,25.4
2018-09-06T05:08:05.283Z,25.4
2018-09-06T05:10:07.513Z,25.4
2018-09-06T05:12:05.180Z,25.4
2018-09-06T05:14:04.853Z,25.5
2018-09-06T05:16:05.592Z,25.4
2018-09-06T05:18:10.501Z,25.4
2018-09-06T05:20:05.151Z,25.4
2018-09-06T05:22:05.001Z,25.4
2018-09-06T05:24:05.178Z,25.4
2018-09-06T05:26:04.866Z,25.4
2018-09-06T05:28:10.644Z,25.4
2018-09-06T05:30:04.842Z,25.4
2018-09-06T05:32:05.502Z,25.4
2018-09-06T05:34:04.737Z,25.4
2018-09-06T05:36:05.447Z,25.4
2018-09-06T05:38:07.900Z,25.4
2018-09-06T05:40:05.087Z,25.4
2018-09-06T05:42:04.794Z,25.4
2018-09-06T05:44:07.609Z,25.4
2018-09-06T05:46:04.966Z,25.4
2018-09-06T05:48:07.188Z,25.4
2018-09-06T05:50:04.855Z,25.4
2018-09-06T05:52:08.115Z,25.4
2018-09-06T05:54:07.327Z,25.4
2018-09-06T05:56:05.598Z,25.4
2018-09-06T05:58:05.378Z,25.4
2018-09-06T06:00:18.172Z,25.4
2018-09-06T06:02:09.955Z,25.4
2018-09-06T06:04:07.192Z,25.4
2018-09-06T06:06:07.503Z,25.4
2018-09-06T06:08:05.251Z,25.4
2018-09-06T06:10:04.959Z,25.4
2018-09-06T06:12:07.193Z,25.5
2018-09-06T06:14:08.044Z,25.5
2018-09-06T06:16:05.319Z,25.5
2018-09-06T06:18:07.184Z,25.5
2018-09-06T06:20:07.483Z,25.5
2018-09-06T06:22:05.374Z,25.5
2018-09-06T06:24:07.641Z,25.5
2018-09-06T06:26:05.340Z,25.5
2018-09-06T06:28:05.456Z,25.5
2018-09-06T06:30:07.625Z,25.5
2018-09-06T06:32:05.372Z,25.5
2018-09-06T06:34:04.750Z,25.6
2018-09-06T06:36:04.851Z,25.6
2018-09-06T06:38:07.592Z,25.6
2018-09-06T06:40:10.338Z,25.6
2018-09-06T06:42:08.107Z,25.6
2018-09-06T06:44:07.307Z,25.6
2018-09-06T06:46:04.624Z,25.6
2018-09-06T06:48:05.343Z,25.6
2018-09-06T06:50:05.016Z,25.6
2018-09-06T06:52:07.346Z,25.6
2018-09-06T06:54:05.131Z,25.6
2018-09-06T06:56:07.366Z,25.6
2018-09-06T06:58:05.167Z,25.6
2018-09-06T07:00:05.058Z,25.7
2018-09-06T07:02:04.813Z,25.7
2018-09-06T07:04:08.054Z,25.7
2018-09-06T07:06:07.468Z,25.7
2018-09-06T07:08:05.124Z,25.7
2018-09-06T07:10:04.869Z,25.7
2018-09-06T07:12:05.811Z,25.7
2018-09-06T07:14:04.881Z,25.7
2018-09-06T07:16:13.197Z,25.7
2018-09-06T07:18:05.159Z,25.7
2018-09-06T07:20:05.117Z,25.7
2018-09-06T07:22:04.858Z,25.7
2018-09-06T07:24:05.569Z,25.7
2018-09-06T07:26:05.229Z,25.7
2018-09-06T07:28:05.052Z,25.7
2018-09-06T07:30:07.273Z,25.7
2018-09-06T07:32:04.978Z,25.7
2018-09-06T07:34:04.652Z,25.7
2018-09-06T07:36:05.398Z,25.7
2018-09-06T07:38:05.111Z,25.7
2018-09-06T07:40:07.392Z,25.8
2018-09-06T07:42:10.101Z,25.7
2018-09-06T07:44:07.431Z,25.7
2018-09-06T07:46:05.113Z,25.7
2018-09-06T07:48:05.036Z,25.7
2018-09-06T07:50:04.980Z,25.7
2018-09-06T07:52:05.009Z,25.7
2018-09-06T07:54:04.830Z,25.7
2018-09-06T07:56:08.084Z,25.8
2018-09-06T07:58:04.804Z,25.7
2018-09-06T08:00:05.581Z,25.6
2018-09-06T08:02:05.282Z,25.4
2018-09-06T08:04:05.104Z,25.3
2018-09-06T08:06:04.803Z,25.2
2018-09-06T08:08:05.523Z,25.2
2018-09-06T08:10:04.731Z,25.4
2018-09-06T08:12:05.530Z,25.4
2018-09-06T08:14:10.644Z,25.4
2018-09-06T08:16:07.927Z,25.4
2018-09-06T08:18:04.857Z,25.4
2018-09-06T08:20:10.593Z,25.4
2018-09-06T08:22:07.804Z,25.3
2018-09-06T08:24:05.572Z,25.3
2018-09-06T08:26:05.343Z,25.2
2018-09-06T08:28:05.066Z,25.3
2018-09-06T08:30:07.285Z,25.3
2018-09-06T08:32:10.047Z,25.3
2018-09-06T08:34:07.245Z,25.3
2018-09-06T08:36:04.915Z,25.3
2018-09-06T08:38:07.665Z,25.3
2018-09-06T08:40:05.408Z,25.3
2018-09-06T08:42:10.238Z,25.3
2018-09-06T08:44:04.959Z,25.3
2018-09-06T08:46:04.756Z,25.3
2018-09-06T08:48:05.541Z,25.3
2018-09-06T08:50:05.199Z,25.3
2018-09-06T08:52:05.486Z,25.3
2018-09-06T08:54:05.575Z,25.3
2018-09-06T08:56:05.362Z,25.2
2018-09-06T08:58:12.654Z,25.2
2018-09-06T09:00:04.880Z,25.2
2018-09-06T09:02:08.185Z,25.2
2018-09-06T09:04:04.932Z,25.3
2018-09-06T09:06:07.683Z,25.3
2018-09-06T09:08:05.480Z,25.3
2018-09-06T09:10:07.726Z,25.2
2018-09-06T09:12:07.952Z,25.3
2018-09-06T09:14:04.687Z,25.3
2018-09-06T09:16:05.436Z,25.2
2018-09-06T09:18:05.596Z,25.3
2018-09-06T09:20:12.879Z,25.1
2018-09-06T09:22:05.676Z,25.1
2018-09-06T09:24:04.935Z,25.1
2018-09-06T09:26:04.729Z,25.2
2018-09-06T09:28:05.609Z,25.2
2018-09-06T09:30:08.002Z,25.2
2018-09-06T09:32:07.279Z,25.1
2018-09-06T09:34:07.659Z,25
2018-09-06T09:36:05.517Z,25
2018-09-06T09:38:04.764Z,24.8
2018-09-06T09:40:05.456Z,24.9
2018-09-06T09:42:05.299Z,25
2018-09-06T09:44:04.968Z,24.7
2018-09-06T09:48:10.386Z,24.6
2018-09-06T09:50:05.096Z,24.6
2018-09-06T09:52:04.846Z,24.7
2018-09-06T09:54:05.630Z,24.7
2018-09-06T09:56:07.545Z,24.7
2018-09-06T09:58:05.284Z,24.7
2018-09-06T10:00:04.988Z,24.8
2018-09-06T10:02:07.204Z,24.9
2018-09-06T10:04:05.516Z,24.8
2018-09-06T10:06:04.799Z,24.9
2018-09-06T10:08:05.535Z,24.9
2018-09-06T10:10:05.242Z,24.9
2018-09-06T10:12:07.453Z,25
2018-09-06T10:14:10.386Z,25
2018-09-06T10:16:05.082Z,25
2018-09-06T10:18:10.746Z,25
2018-09-06T10:20:09.957Z,25
2018-09-06T10:22:04.653Z,25
2018-09-06T10:24:07.428Z,24.9
2018-09-06T10:26:07.231Z,24.9
2018-09-06T10:28:05.428Z,24.9
2018-09-06T10:30:07.614Z,25
2018-09-06T10:32:05.325Z,25
2018-09-06T10:34:05.011Z,25
2018-09-06T10:36:07.774Z,25
2018-09-06T10:38:13.073Z,25
2018-09-06T10:40:07.309Z,24.9
2018-09-06T10:42:07.840Z,25
2018-09-06T10:44:05.553Z,25
2018-09-06T10:46:04.752Z,24.9
2018-09-06T10:48:05.483Z,24.8
2018-09-06T10:50:05.213Z,24.6
2018-09-06T10:52:07.495Z,24.7
2018-09-06T10:54:05.220Z,24.7
2018-09-06T10:56:06.161Z,24.7
2018-09-06T10:58:07.376Z,24.7
2018-09-06T11:00:06.720Z,24.6
2018-09-06T11:02:08.276Z,24.7
2018-09-06T11:04:05.486Z,24.7
2018-09-06T11:06:05.298Z,24.8
2018-09-06T11:08:05.672Z,24.8
2018-09-06T11:10:06.305Z,24.9
2018-09-06T11:12:04.766Z,24.8
2018-09-06T11:14:09.857Z,24.9
2018-09-06T11:16:08.068Z,24.8
2018-09-06T11:18:04.985Z,24.8
2018-09-06T11:20:05.174Z,24.8
2018-09-06T11:22:05.033Z,24.8
2018-09-06T11:24:05.170Z,24.9
2018-09-06T11:26:04.915Z,24.9
2018-09-06T11:28:07.283Z,24.9
2018-09-06T11:30:05.469Z,24.9
2018-09-06T11:32:07.791Z,24.9
2018-09-06T11:34:04.746Z,24.9
2018-09-06T11:36:20.058Z,25
2018-09-06T11:38:05.050Z,25
2018-09-06T11:40:07.359Z,24.7
2018-09-06T11:42:04.630Z,24.8
2018-09-06T11:44:05.331Z,24.7
2018-09-06T11:46:05.667Z,24.7
2018-09-06T11:48:05.520Z,24.8
2018-09-06T11:50:04.790Z,24.7
2018-09-06T11:52:05.628Z,24.7
2018-09-06T11:54:07.804Z,24.7
2018-09-06T11:56:05.243Z,24.7
2018-09-06T11:58:07.545Z,24.8
2018-09-06T12:00:05.176Z,24.8
2018-09-06T12:02:07.453Z,24.9
2018-09-06T12:04:05.602Z,24.8
2018-09-06T12:06:09.991Z,24.9
2018-09-06T12:08:05.131Z,24.9
2018-09-06T12:10:10.072Z,24.9
2018-09-06T12:12:04.918Z,24.9
2018-09-06T12:14:13.273Z,24.6
2018-09-06T12:16:05.023Z,24.6
2018-09-06T12:18:07.470Z,24.7
2018-09-06T12:20:07.231Z,24.6
2018-09-06T12:22:04.915Z,24.6
2018-09-06T12:24:07.201Z,24.8
2018-09-06T12:26:07.442Z,24.6
2018-09-06T12:28:05.240Z,24.6
2018-09-06T12:30:05.045Z,24.4
2018-09-06T12:32:04.744Z,24.6
2018-09-06T12:34:17.316Z,24.7
2018-09-06T12:36:07.585Z,24.8
2018-09-06T12:38:05.295Z,24.8
2018-09-06T12:40:05.270Z,24.8
2018-09-06T12:42:04.945Z,24.9
2018-09-06T12:44:04.690Z,24.9
2018-09-06T12:46:05.370Z,24.9
2018-09-06T12:48:05.026Z,25
2018-09-06T12:50:05.004Z,25
2018-09-06T12:52:05.225Z,24.9
2018-09-06T12:54:07.585Z,24.8
2018-09-06T12:56:07.823Z,24.9
2018-09-06T12:58:13.202Z,24.9
2018-09-06T13:00:04.972Z,24.9
2018-09-06T13:02:04.683Z,24.9
2018-09-06T13:04:07.893Z,25
2018-09-06T13:06:10.650Z,24.9
2018-09-06T13:08:05.627Z,25
2018-09-06T13:10:08.119Z,25
2018-09-06T13:12:04.762Z,25
2018-09-06T13:14:07.969Z,25
2018-09-06T13:16:07.301Z,25.1
2018-09-06T13:18:05.199Z,25
2018-09-06T13:20:04.920Z,25
2018-09-06T13:22:07.155Z,24.9
2018-09-06T13:24:05.028Z,24.9
2018-09-06T13:26:04.686Z,24.9
2018-09-06T13:28:05.389Z,24.8
2018-09-06T13:30:04.641Z,24.9
2018-09-06T13:32:04.882Z,24.8
2018-09-06T13:34:09.806Z,24.9
2018-09-06T13:36:05.491Z,24.9
2018-09-06T13:38:10.258Z,24.9
2018-09-06T13:40:04.965Z,24.9
2018-09-06T13:42:04.768Z,24.9
2018-09-06T13:44:13.024Z,25
2018-09-06T13:46:04.724Z,25
2018-09-06T13:48:05.584Z,24.9
2018-09-06T13:50:07.869Z,25
2018-09-06T13:52:05.315Z,25
2018-09-06T13:54:05.379Z,25
2018-09-06T13:56:05.389Z,25
2018-09-06T13:58:05.068Z,25
2018-09-06T14:00:05.379Z,24.9
2018-09-06T14:02:13.171Z,25
2018-09-06T14:04:04.893Z,24.9
2018-09-06T14:06:04.618Z,25
2018-09-06T14:08:05.343Z,25
2018-09-06T14:10:10.099Z,24.9
2018-09-06T14:12:12.424Z,24.9
2018-09-06T14:14:05.092Z,24.9
2018-09-06T14:16:05.441Z,25
2018-09-06T14:18:05.320Z,25
2018-09-06T14:20:12.666Z,25
2018-09-06T14:22:05.413Z,25
2018-09-06T14:24:05.076Z,25.1
2018-09-06T14:26:05.027Z,25.1
2018-09-06T14:28:04.897Z,25.1
2018-09-06T14:30:05.608Z,25
2018-09-06T14:32:04.938Z,25
2018-09-06T14:34:04.924Z,24.9
2018-09-06T14:36:04.675Z,25.1
2018-09-06T14:38:08.170Z,25
2018-09-06T14:40:07.617Z,25.1
2018-09-06T14:42:05.376Z,25.1
2018-09-06T14:44:04.890Z,25.1
2018-09-06T14:46:04.875Z,25
2018-09-06T14:48:07.664Z,25.1
2018-09-06T14:50:05.435Z,25.1
2018-09-06T14:52:15.218Z,25
2018-09-06T14:54:07.987Z,25
2018-09-06T14:56:09.764Z,25.1
2018-09-06T14:58:08.626Z,25
2018-09-06T15:00:05.367Z,25
2018-09-06T15:02:05.075Z,24.9
2018-09-06T15:04:04.824Z,25
2018-09-06T15:06:08.048Z,24.9
2018-09-06T15:08:05.555Z,24.9
2018-09-06T15:10:04.751Z,24.9
2018-09-06T15:12:05.619Z,25
2018-09-06T15:14:07.922Z,25
2018-09-06T15:16:04.708Z,25
2018-09-06T15:18:05.116Z,25
2018-09-06T15:20:04.953Z,25.1
2018-09-06T15:22:09.979Z,25.1
2018-09-06T15:24:04.710Z,25.1
2018-09-06T15:26:05.467Z,25.1
2018-09-06T15:28:05.222Z,25
2018-09-06T15:30:05.351Z,24.9
2018-09-06T15:32:06.101Z,24.9
2018-09-06T15:34:04.988Z,25
2018-09-06T15:36:07.463Z,25.1
2018-09-06T15:38:12.327Z,25.1
2018-09-06T15:40:05.146Z,25.1
2018-09-06T15:42:04.908Z,25.1
2018-09-06T15:44:08.322Z,25
2018-09-06T15:46:10.612Z,25.1
2018-09-06T15:48:04.811Z,25.1
2018-09-06T15:50:08.047Z,25.1
2018-09-06T15:52:04.835Z,25.1
2018-09-06T15:54:05.019Z,25.1
2018-09-06T15:56:04.752Z,25
2018-09-06T15:58:05.455Z,25
2018-09-06T16:00:10.505Z,25
2018-09-06T16:02:05.230Z,25
2018-09-06T16:04:04.959Z,25.1
2018-09-06T16:06:04.739Z,25.1
2018-09-06T16:08:10.493Z,25.1
2018-09-06T16:10:05.256Z,25.1
2018-09-06T16:12:07.611Z,25.1
2018-09-06T16:14:07.851Z,25
2018-09-06T16:16:05.654Z,25
2018-09-06T16:18:08.136Z,24.9
2018-09-06T16:20:05.376Z,24.9
2018-09-06T16:22:07.658Z,24.9
2018-09-06T16:24:12.734Z,24.9
2018-09-06T16:26:04.720Z,24.9
2018-09-06T16:28:05.412Z,24.9
2018-09-06T16:30:05.381Z,25
2018-09-06T16:32:05.186Z,25
2018-09-06T16:34:05.446Z,25.1
2018-09-06T16:36:07.662Z,25
2018-09-06T16:38:07.888Z,25
2018-09-06T16:40:08.124Z,24.9
2018-09-06T16:42:04.867Z,24.9
2018-09-06T16:44:05.559Z,24.9
2018-09-06T16:46:04.793Z,25
2018-09-06T16:48:05.514Z,24.9
2018-09-06T16:50:05.282Z,24.9
2018-09-06T16:52:04.994Z,24.9
2018-09-06T16:54:15.333Z,24.9
2018-09-06T16:56:07.563Z,24.9
2018-09-06T16:58:04.807Z,24.9
2018-09-06T17:00:05.488Z,24.8
2018-09-06T17:02:04.946Z,24.9
2018-09-06T17:04:05.096Z,24.8
2018-09-06T17:06:04.779Z,24.8
2018-09-06T17:08:05.538Z,24.8
2018-09-06T17:10:13.033Z,24.7
2018-09-06T17:12:09.819Z,24.7
2018-09-06T17:14:04.712Z,24.8
2018-09-06T17:16:08.128Z,24.8
2018-09-06T17:18:08.097Z,24.6
2018-09-06T17:20:10.606Z,24.6
2018-09-06T17:22:05.320Z,24.6
2018-09-06T17:24:05.084Z,24.7
2018-09-06T17:26:04.756Z,24.7
2018-09-06T17:28:07.671Z,24.7
2018-09-06T17:30:05.446Z,24.8
2018-09-06T17:32:05.355Z,24.8
2018-09-06T17:34:05.346Z,24.8
2018-09-06T17:36:05.535Z,24.7
2018-09-06T17:38:05.527Z,24.7
2018-09-06T17:40:10.307Z,24.7
2018-09-06T17:42:05.533Z,24.7
2018-09-06T17:44:05.242Z,24.7
2018-09-06T17:46:05.119Z,24.7
2018-09-06T17:48:05.023Z,24.7
2018-09-06T17:50:04.691Z,24.7
2018-09-06T17:52:05.440Z,24.6
2018-09-06T17:54:07.718Z,24.7
2018-09-06T17:56:07.990Z,24.7
2018-09-06T17:58:07.267Z,24.7
2018-09-06T18:00:04.987Z,24.7
2018-09-06T18:02:09.849Z,24.6
2018-09-06T18:04:08.127Z,24.6
2018-09-06T18:06:07.424Z,24.6
2018-09-06T18:08:05.161Z,24.6
2018-09-06T18:10:05.015Z,24.5
2018-09-06T18:12:05.443Z,24.6
2018-09-06T18:14:08.155Z,24.6
2018-09-06T18:16:04.858Z,24.6
2018-09-06T18:18:05.338Z,24.6
2018-09-06T18:20:07.576Z,24.5
2018-09-06T18:22:12.862Z,24.5
2018-09-06T18:24:05.569Z,24.5
2018-09-06T18:26:07.874Z,24.5
2018-09-06T18:28:08.164Z,24.5
2018-09-06T18:30:04.955Z,24.5
2018-09-06T18:32:07.297Z,24.5
2018-09-06T18:34:04.995Z,24.5
2018-09-06T18:36:04.724Z,24.5
2018-09-06T18:38:05.522Z,24.5
2018-09-06T18:40:10.309Z,24.3
2018-09-06T18:42:17.673Z,24.4
2018-09-06T18:44:05.689Z,24.4
2018-09-06T18:46:10.078Z,24.4
2018-09-06T18:48:04.931Z,24.4
2018-09-06T18:50:07.205Z,24.5
2018-09-06T18:52:23.790Z,24.5
2018-09-06T18:54:04.938Z,24.5
2018-09-06T18:56:07.156Z,24.5
2018-09-06T18:58:04.875Z,24.5
2018-09-06T19:00:08.112Z,24.4
2018-09-06T19:02:04.912Z,24.4
2018-09-06T19:04:05.040Z,24.4
2018-09-06T19:06:04.817Z,24.4
2018-09-06T19:08:05.522Z,24.4
2018-09-06T19:10:07.896Z,24.4
2018-09-06T19:12:05.585Z,24.4
2018-09-06T19:14:05.276Z,24.4
2018-09-06T19:16:05.517Z,24.4
2018-09-06T19:18:04.951Z,24.4
2018-09-06T19:20:04.757Z,24.5
2018-09-06T19:22:05.449Z,24.5
2018-09-06T19:24:05.118Z,24.5
2018-09-06T19:26:04.842Z,24.5
2018-09-06T19:28:12.327Z,24.3
2018-09-06T19:30:12.705Z,24.3
2018-09-06T19:32:05.086Z,24.3
2018-09-06T19:34:04.872Z,24.3
2018-09-06T19:36:04.877Z,24.3
2018-09-06T19:38:04.772Z,24.3
2018-09-06T19:40:07.387Z,24.2
2018-09-06T19:42:15.258Z,24.2
2018-09-06T19:44:08.033Z,24.1
2018-09-06T19:46:04.937Z,24.1
2018-09-06T19:48:07.684Z,24.1
2018-09-06T19:50:05.400Z,24
2018-09-06T19:52:18.249Z,24.2
2018-09-06T19:54:05.059Z,24.2
2018-09-06T19:56:05.407Z,24.2
2018-09-06T19:58:05.558Z,24.2
2018-09-06T20:00:05.252Z,24.3
2018-09-06T20:02:12.985Z,24.2
2018-09-06T20:04:04.678Z,24.2
2018-09-06T20:06:12.996Z,24.2
2018-09-06T20:08:04.685Z,24.2
2018-09-06T20:10:07.922Z,24.1
2018-09-06T20:12:07.600Z,24.1
2018-09-06T20:14:08.011Z,24
2018-09-06T20:16:05.484Z,24
2018-09-06T20:18:05.462Z,24.1
2018-09-06T20:20:04.781Z,24
2018-09-06T20:22:05.512Z,24
2018-09-06T20:24:05.303Z,24
2018-09-06T20:26:05.085Z,24
2018-09-06T20:28:05.313Z,23.8
2018-09-06T20:30:04.917Z,23.7
2018-09-06T20:32:05.394Z,23.8
2018-09-06T20:34:05.527Z,23.9
2018-09-06T20:36:08.154Z,24
2018-09-06T20:38:05.404Z,24
2018-09-06T20:40:04.718Z,24
2018-09-06T20:42:04.946Z,24
2018-09-06T20:44:04.832Z,24
2018-09-06T20:46:05.508Z,24
2018-09-06T20:48:10.322Z,24
2018-09-06T20:50:05.582Z,24
2018-09-06T20:52:04.954Z,24.1
2018-09-06T20:54:04.695Z,24.1
2018-09-06T20:56:04.897Z,24.1
2018-09-06T20:58:08.171Z,24
2018-09-06T21:00:04.918Z,24
2018-09-06T21:02:04.599Z,24
2018-09-06T21:04:05.314Z,24
2018-09-06T21:06:05.040Z,24
2018-09-06T21:08:04.797Z,23.9
2018-09-06T21:10:07.275Z,23.9
2018-09-06T21:12:07.523Z,23.9
2018-09-06T21:14:05.214Z,23.9
2018-09-06T21:16:04.929Z,23.8
2018-09-06T21:18:04.856Z,23.9
2018-09-06T21:20:04.795Z,24
2018-09-06T21:22:05.585Z,24
2018-09-06T21:24:05.275Z,23.9
2018-09-06T21:26:04.967Z,24
2018-09-06T21:28:04.694Z,24
2018-09-06T21:30:05.606Z,24
2018-09-06T21:32:04.872Z,24
2018-09-06T21:34:05.133Z,23.8
2018-09-06T21:36:04.833Z,23.8
2018-09-06T21:38:04.672Z,23.8
2018-09-06T21:40:05.557Z,23.8
2018-09-06T21:42:07.164Z,23.8
2018-09-06T21:44:04.865Z,23.8
2018-09-06T21:46:07.348Z,23.9
2018-09-06T21:48:07.693Z,24
2018-09-06T21:50:04.900Z,24
2018-09-06T21:52:05.636Z,23.9
2018-09-06T21:54:10.445Z,23.9
2018-09-06T21:56:05.099Z,23.9
2018-09-06T21:58:04.929Z,23.9
2018-09-06T22:00:05.713Z,23.8
2018-09-06T22:02:05.499Z,23.9
2018-09-06T22:04:05.507Z,24
2018-09-06T22:06:05.192Z,24
2018-09-06T22:08:04.952Z,24
2018-09-06T22:10:04.766Z,24
2018-09-06T22:12:05.510Z,24.1
2018-09-06T22:14:05.361Z,24
2018-09-06T22:16:04.702Z,24.1
2018-09-06T22:18:05.685Z,24
2018-09-06T22:20:05.406Z,24
2018-09-06T22:22:05.166Z,24
2018-09-06T22:24:05.459Z,24
2018-09-06T22:26:07.797Z,24
2018-09-06T22:28:05.518Z,24
2018-09-06T22:30:05.202Z,24
2018-09-06T22:32:04.832Z,24
2018-09-06T22:34:04.740Z,24
2018-09-06T22:36:05.487Z,23.9
2018-09-06T22:38:07.935Z,23.5
2018-09-06T22:40:07.168Z,23.5
2018-09-06T22:42:05.357Z,23.5
2018-09-06T22:44:05.569Z,23.6
2018-09-06T22:46:05.264Z,23.7
2018-09-06T22:48:04.979Z,23.7
2018-09-06T22:50:05.279Z,23.8
2018-09-06T22:52:04.974Z,23.7
2018-09-06T22:54:07.164Z,23.7
2018-09-06T22:56:04.884Z,23.7
2018-09-06T22:58:13.388Z,23.8
2018-09-06T23:00:04.871Z,23.8
2018-09-06T23:02:08.084Z,23.9
2018-09-06T23:04:04.785Z,23.9
2018-09-06T23:06:07.500Z,23.9
2018-09-06T23:08:05.300Z,23.9
2018-09-06T23:10:05.624Z,23.9
2018-09-06T23:12:05.138Z,23.9
2018-09-06T23:14:05.299Z,23.9
2018-09-06T23:16:05.563Z,23.9
2018-09-06T23:18:05.495Z,23.9
2018-09-06T23:20:05.196Z,23.9
2018-09-06T23:22:04.897Z,23.9
2018-09-06T23:24:04.646Z,23.9
2018-09-06T23:26:07.900Z,23.9
2018-09-06T23:28:05.627Z,23.9
2018-09-06T23:30:05.366Z,23.9
2018-09-06T23:32:05.177Z,23.9
2018-09-06T23:34:04.909Z,23.9
2018-09-06T23:36:05.597Z,23.9
2018-09-06T23:38:07.839Z,23.9
2018-09-06T23:40:05.587Z,23.9
2018-09-06T23:42:05.286Z,23.9
2018-09-06T23:44:04.970Z,23.9
2018-09-06T23:46:07.304Z,23.8
2018-09-06T23:48:05.214Z,23.9
2018-09-06T23:50:04.893Z,23.9
2018-09-06T23:52:10.722Z,23.8
2018-09-06T23:54:05.419Z,23.8
2018-09-06T23:56:05.096Z,23.8
2018-09-06T23:58:04.765Z,23.9
